Latest Weather Observations for Davis*

IDT60801

Issued at 3:35 pm EST Thursday 31 July 2014 (issued every 30 minutes, with the page automatically refreshed every 10 minutes)

About weather observations | Map of weather stations | Latest weather observations for ANT | Other Formats
Station Details ID: 300000 Name: DAVIS Lat: -68.57 Lon: 77.97 Height: 18.0 m
Data from the previous 72 hours. | See also: Recent months at Davis*
Date/Time
EST
Temp
°C
App
Temp
°C
Dew
Point
Rel
Hum
%
Delta-T
°C
Wind Press
QNH
hPa
Press
MSL
hPa
Rain
since 9 am
mm
Dir
 
Spd
km/h
Gust
km/h
Spd
kts
Gust
kts
31/03:30pm -26.7 -31.7 -31.4 64 - ESE 6 9 3 5 990.8 - -
31/03:00pm -26.9 -31.9 -31.1 68 - SE 6 9 3 5 991.4 - -
31/02:30pm -27.1 -32.1 -31.2 68 - SSE 6 9 3 5 992.0 - -
31/02:00pm -27.3 -32.3 -31.1 70 - S 6 7 3 4 992.5 - -
31/01:30pm -27.8 -32.8 -31.9 68 - SSW 6 11 3 6 993.1 - -
31/01:00pm -27.7 -31.9 -31.3 71 - S 2 6 1 3 993.5 993.9 -
31/12:30pm -28.0 -33.2 -31.9 69 - SW 7 9 4 5 993.9 - -
31/12:00pm -28.3 -32.9 -33.0 64 - SE 4 7 2 4 994.6 - -
31/11:30am -26.2 -32.1 -30.5 67 - SSE 11 15 6 8 995.2 - -
31/11:00am -26.8 -32.0 -30.7 70 - S 7 9 4 5 995.7 - -
31/10:30am -27.3 -32.5 -31.4 68 - SSW 7 11 4 6 996.5 - -
31/10:00am -26.2 -31.8 -30.6 66 - S 9 11 5 6 997.2 997.6 -
31/09:30am -26.8 -32.4 -31.4 65 - S 9 11 5 6 997.6 - -
31/09:00am -26.1 -31.6 -29.9 70 - S 9 11 5 6 998.4 - -
31/08:30am -27.6 -33.2 -31.7 68 - SSW 9 11 5 6 999.1 - -
31/08:00am -27.2 -33.5 -32.4 61 - SSW 13 13 7 7 999.8 - -
31/07:30am -26.1 -31.7 -31.7 59 - SW 9 13 5 7 1000.5 - -
31/07:00am -25.7 -31.7 -32.2 54 - S 11 13 6 7 1001.0 1001.3 -
31/06:30am -24.9 -32.0 -31.7 53 - SSE 17 19 9 10 1001.6 - -
31/06:00am -24.2 -31.7 -32.3 47 - S 19 24 10 13 1001.9 - -
31/05:30am -24.0 -30.7 -31.8 49 - S 15 20 8 11 1002.8 - -
31/05:00am -24.2 -29.8 -31.4 51 - S 9 13 5 7 1003.2 - -
31/04:30am -24.9 -31.2 -31.7 53 - S 13 17 7 9 1003.5 - -
31/04:00am -24.6 -31.3 -31.8 51 - S 15 19 8 10 1003.9 1004.2 -
31/03:30am -23.8 -30.9 -31.0 52 - S 17 20 9 11 1004.2 - -
31/03:00am -24.5 -31.2 -30.4 58 - SSW 15 19 8 10 1004.7 - -
31/02:30am -25.9 -32.2 -31.5 59 - SSW 13 15 7 8 1004.9 - -
31/02:00am -26.1 -31.7 -32.2 57 - S 9 13 5 7 1005.2 - -
31/01:30am -25.1 -30.3 -31.3 56 - S 7 11 4 6 1005.7 - -
31/01:00am -25.5 -31.1 -32.0 55 - SSW 9 11 5 6 1006.3 1006.6 -
31/12:30am -24.1 -30.0 -31.7 49 - SSE 11 13 6 7 1006.4 - -
31/12:00am -23.3 -30.0 -30.8 50 - S 15 20 8 11 1006.6 - -
 
Date/Time
EST
Temp
°C
App
Temp
°C
Dew
Point
Rel
Hum
%
Delta-T
°C
Wind Press
QNH
hPa
Press
MSL
hPa
Rain
since 9 am
mm
Dir
 
Spd
km/h
Gust
km/h
Spd
kts
Gust
kts
30/11:30pm -24.5 -30.8 -30.7 56 - S 13 20 7 11 1006.9 - -
30/11:00pm -25.9 -31.8 -31.7 58 - SSE 11 15 6 8 1007.2 - -
30/10:30pm -26.0 -32.3 -32.0 57 - SSE 13 17 7 9 1007.1 - -
30/10:00pm -24.9 -30.5 -31.1 56 - S 9 13 5 7 1007.2 1007.5 -
30/09:30pm -26.9 -31.9 -32.6 58 - SSW 6 11 3 6 1007.4 - -
30/09:00pm -23.9 -31.0 -30.0 57 - SSE 17 20 9 11 1007.4 - -
30/08:30pm -24.7 -31.0 -31.3 54 - SSE 13 17 7 9 1007.6 - -
30/08:00pm -26.0 -31.0 -32.0 57 - S 6 7 3 4 1007.3 - -
30/07:30pm -26.9 -31.2 -32.8 57 - S 2 6 1 3 1007.5 - -
30/07:00pm -26.4 -31.6 -32.3 58 - SSE 7 9 4 5 1007.2 1007.5 -
30/06:30pm -25.7 -29.6 -32.6 52 - CALM 0 0 0 0 1007.3 - -
30/06:00pm -24.5 -30.1 -31.7 51 - SE 9 15 5 8 1007.4 - -
30/05:30pm -24.3 -30.6 -31.7 50 - SSW 13 15 7 8 1007.0 - -
30/05:00pm -23.1 -29.8 -29.6 55 - S 15 19 8 10 1007.1 - -
30/04:30pm -23.1 -30.6 -31.0 48 - SSE 19 24 10 13 1006.7 - -
30/04:00pm -22.7 -30.2 -30.6 49 - S 19 22 10 12 1006.7 1007.0 -
30/03:30pm -23.9 -31.6 -31.8 48 - SSE 20 28 11 15 1006.4 - -
30/03:00pm -24.7 -32.2 -31.9 51 - S 19 24 10 13 1006.4 - -
30/02:30pm -24.9 -33.3 -32.3 50 - S 24 30 13 16 1006.0 - -
30/02:00pm -25.3 -32.4 -32.2 53 - S 17 22 9 12 1005.6 - -
30/01:30pm -25.0 -32.5 -32.6 49 - S 19 22 10 12 1005.2 - -
30/01:00pm -23.6 -31.6 -32.6 43 - SSE 22 30 12 16 1005.0 1005.3 -
30/12:30pm -24.7 -31.8 -32.7 47 - SE 17 20 9 11 1005.0 - -
30/12:00pm -24.9 -32.4 -32.1 51 - SE 19 22 10 12 1004.8 - -
30/11:30am -25.3 -32.4 -32.0 54 - SE 17 20 9 11 1004.7 - -
30/11:00am -24.7 -31.8 -31.7 52 - SSE 17 20 9 11 1004.5 - -
30/10:30am -24.0 -31.5 -32.7 45 - SSE 19 24 10 13 1004.1 - -
30/10:00am -23.2 -31.2 -32.5 42 - SSE 22 30 12 16 1003.4 1003.7 -
30/09:30am -24.4 -32.8 -33.1 44 - SSE 24 35 13 19 1002.8 - -
30/09:00am -25.3 -33.0 -33.1 48 - SSE 20 28 11 15 1002.4 - -
30/08:30am -26.0 -33.7 -33.3 50 - SSE 20 28 11 15 1002.0 - -
30/08:00am -26.3 -32.6 -32.4 56 - SSE 13 20 7 11 1002.1 - -
30/07:30am -26.9 -32.1 -33.0 56 - S 7 13 4 7 1001.9 - -
30/07:00am -26.3 -33.0 -32.4 56 - SE 15 17 8 9 1001.3 1001.6 -
30/06:30am -25.6 -32.7 -31.0 61 - SE 17 19 9 10 1001.2 - -
30/06:00am -26.0 -31.6 -30.6 65 - SE 9 13 5 7 1000.9 - -
30/05:30am -27.2 -32.8 -31.9 64 - ESE 9 9 5 5 1000.6 - -
30/05:00am -26.8 -32.4 -31.4 65 - ESE 9 11 5 6 1000.1 - -
30/04:30am -26.7 -31.9 -31.4 64 - ESE 7 11 4 6 999.4 - -
30/04:00am -26.9 -31.9 -31.6 64 - E 6 7 3 4 999.2 999.5 -
30/03:30am -27.2 -32.8 -32.6 60 - ESE 9 11 5 6 998.4 - -
30/03:00am -25.7 -32.4 -30.6 63 - SE 15 19 8 10 997.8 - -
30/02:30am -25.8 -31.4 -30.6 64 - S 9 13 5 7 997.6 - -
30/02:00am -25.6 -29.4 -30.2 65 - CALM 0 0 0 0 997.4 - -
30/01:30am -25.7 -31.6 -31.0 61 - SE 11 13 6 7 997.1 - -
30/01:00am -25.1 -31.8 -29.9 64 - SE 15 17 8 9 996.7 997.1 -
30/12:30am -26.1 -31.1 -30.1 69 - SE 6 9 3 5 996.4 - -
30/12:00am -25.8 -31.0 -30.4 65 - SE 7 11 4 6 995.8 - -
 
Date/Time
EST
Temp
°C
App
Temp
°C
Dew
Point
Rel
Hum
%
Delta-T
°C
Wind Press
QNH
hPa
Press
MSL
hPa
Rain
since 9 am
mm
Dir
 
Spd
km/h
Gust
km/h
Spd
kts
Gust
kts
29/11:30pm -27.0 -32.0 -31.9 63 - SSW 6 7 3 4 995.5 - -
29/11:00pm -25.9 -31.1 -30.8 63 - SSE 7 9 4 5 995.1 - -
29/10:30pm -25.2 -29.0 -30.3 62 - CALM 0 6 0 3 994.9 - -
29/10:00pm -24.2 -29.4 -29.9 59 - SSE 7 9 4 5 994.6 995.0 -
29/09:30pm -24.0 -30.3 -29.7 59 - SSE 13 15 7 8 994.4 - -
29/09:00pm -23.8 -29.7 -29.5 59 - SE 11 13 6 7 994.0 - -
29/08:30pm -24.0 -29.5 -29.5 60 - SE 9 13 5 7 994.0 - -
29/08:00pm -23.6 -29.9 -29.3 59 - SE 13 15 7 8 993.3 - -
29/07:30pm -22.7 -29.0 -28.3 60 - SE 13 15 7 8 993.0 - -
29/07:00pm -22.6 -27.7 -28.6 58 - ESE 7 11 4 6 992.5 992.9 -
29/06:30pm -22.2 -28.5 -28.2 58 - ESE 13 15 7 8 992.2 - -
29/06:00pm -21.9 -28.2 -28.1 57 - ESE 13 15 7 8 991.9 - -
29/05:30pm -22.2 -28.5 -28.4 57 - ESE 13 13 7 7 991.7 - -
29/05:00pm -21.4 -26.9 -28.2 54 - ESE 9 11 5 6 991.5 - -
29/04:30pm -21.7 -27.6 -28.3 55 - ESE 11 15 6 8 991.3 - -
29/04:00pm -21.5 -27.8 -27.9 56 - ESE 13 15 7 8 991.1 991.5 -
29/03:30pm -22.0 -28.3 -27.8 59 - SE 13 15 7 8 991.1 - -
29/03:00pm -22.1 -28.7 -27.9 59 - SE 15 17 8 9 990.9 - -
29/02:30pm -21.9 -28.2 -27.7 59 - SE 13 15 7 8 990.8 - -
29/02:00pm -21.7 -28.3 -27.3 60 - SE 15 17 8 9 990.6 - -
29/01:30pm -21.5 -28.1 -27.2 60 - SE 15 17 8 9 990.4 - -
29/01:00pm -21.4 -27.6 -26.9 61 - SE 13 15 7 8 990.2 990.6 -
29/12:30pm -20.7 -26.9 -26.8 58 - ESE 13 13 7 7 990.1 - -
29/12:00pm -20.5 -26.4 -26.6 58 - ESE 11 13 6 7 989.9 - -
29/11:30am -20.8 -26.7 -27.0 57 - SE 11 15 6 8 989.8 - -
29/11:00am -20.5 -27.1 -26.8 57 - ESE 15 17 8 9 989.5 - -
29/10:30am -20.1 -26.7 -26.4 57 - ESE 15 17 8 9 989.4 - -
29/10:00am -20.4 -27.0 -26.9 56 - ESE 15 17 8 9 989.1 989.5 -
29/09:30am -19.8 -26.4 -26.3 56 - ESE 15 15 8 8 989.2 - -
29/09:00am -19.9 -26.5 -26.2 57 - ESE 15 17 8 9 988.8 - -
29/08:30am -19.9 -26.1 -26.2 57 - ESE 13 15 7 8 988.7 - -
29/08:00am -19.6 -26.2 -25.9 57 - ESE 15 17 8 9 988.2 - -
29/07:30am -19.5 -25.3 -26.0 56 - ESE 11 13 6 7 987.9 - -
29/07:00am -19.3 -25.1 -25.8 56 - ESE 11 15 6 8 987.6 988.0 -
29/06:30am -18.8 -25.0 -26.0 53 - ESE 13 17 7 9 987.4 - -
29/06:00am -18.9 -25.1 -25.8 54 - ESE 13 15 7 8 987.4 - -
29/05:30am -17.9 -22.8 -25.3 52 - ENE 6 9 3 5 987.0 - -
29/05:00am -16.2 -21.6 -24.4 49 - ENE 9 11 5 6 986.7 - -
29/04:30am -18.0 -25.0 -25.4 52 - ESE 17 17 9 9 986.4 - -
29/04:00am -17.8 -24.8 -25.2 52 - SE 17 20 9 11 986.2 986.5 -
29/03:30am -17.5 -24.8 -24.9 52 - ESE 19 20 10 11 985.9 - -
29/03:00am -17.2 -24.2 -24.7 52 - SE 17 20 9 11 985.9 - -
29/02:30am -17.0 -24.3 -24.5 52 - SE 19 22 10 12 985.7 - -
29/02:00am -16.6 -23.9 -24.5 50 - SE 19 22 10 12 985.6 - -
29/01:30am -16.6 -24.1 -24.8 49 - ESE 20 24 11 13 985.3 - -
29/01:00am -16.2 -23.7 -24.0 51 - SSE 20 24 11 13 985.0 985.3 -
29/12:30am -16.1 -23.0 -24.1 50 - ESE 17 19 9 10 984.7 - -
29/12:00am -15.5 -22.8 -23.7 49 - ESE 19 24 10 13 984.6 - -
 
Date/Time
EST
Temp
°C
App
Temp
°C
Dew
Point
Rel
Hum
%
Delta-T
°C
Wind Press
QNH
hPa
Press
MSL
hPa
Rain
since 9 am
mm
Dir
 
Spd
km/h
Gust
km/h
Spd
kts
Gust
kts
28/11:30pm -15.1 -22.0 -23.6 48 - SE 17 24 9 13 984.5 - -
28/11:00pm -14.4 -24.2 -23.2 47 - E 32 37 17 20 983.9 - -
28/10:30pm -14.1 -23.8 -22.4 49 - E 32 37 17 20 983.3 - -
28/10:00pm -13.8 -22.8 -21.7 51 - E 28 35 15 19 982.9 983.2 -
28/09:30pm -13.4 -22.3 -21.3 51 - E 28 35 15 19 982.7 - -
28/09:00pm -13.8 -21.2 -20.7 56 - ESE 20 26 11 14 982.2 - -
28/08:30pm -13.5 -19.2 -20.4 56 - ESE 11 15 6 8 981.8 - -
28/08:00pm -12.8 -20.6 -20.1 54 - ENE 22 30 12 16 981.1 - -
28/07:30pm -12.5 -21.0 -19.8 54 - E 26 32 14 17 980.4 - -
28/07:00pm -12.2 -20.7 -19.8 53 - E 26 32 14 17 979.8 980.1 -

Other Formats:

Comma delimited format used in spreadsheet applications
http://www.bom.gov.au/fwo/IDT60803/IDT60803.89571.axf

JavaScript Object Notation format (JSON) in row-major order
http://www.bom.gov.au/fwo/IDT60803/IDT60803.89571.json